Brantwood, Wisconsin
Current Conditions -  °F | °C
As of 5:15 PM on Wednesday 17 Dec 2014 (Local Time) from KPBH Reporting Station
Light Snow Light Snow  
Wind Chill: 10°   Ceiling: 1800
Heat Index: 19°   Visibility: 10mi
Dew Point: 15°   Wind: 6mph
Humidity: 85%   Direction: 310°NW
Pressure: 30.22"   Gusts: NA
Location:  45.56°N, 90.12°W
Report Text: KPBH 172315Z AUTO 31005KT 10SM -SN OVC018 M07/M10 A3022 RMK AO2 T10751097
Loading
Personal Weather Stations






























Interactive Weather Map New forecast layout! Learn more

10-Day Weather Forecast

Advertisements
Track Severe Weather on mobile